Time;durP1;ratioP1;P1;durP2;ratioP2;P2;SDS_P1;SDS_P2;PMS_P1;PMS_P2;Temp;Humidity;BMP_temperature;BMP_pressure;BME280_temperature;BME280_humidity;BME280_pressure;Samples;Min_cycle;Max_cycle;Signal;HPM_P1;HPM_P2
2023/06/17 00:00:21;;;;;;;0.10;0.10;;;;;;;;;;5133320;27;20070;-50
2023/06/17 00:02:47;;;;;;;0.10;0.10;;;;;;;;;;5133616;27;20038;-49
2023/06/17 00:05:12;;;;;;;0.10;0.10;;;;;;;;;;5134198;27;20488;-48
2023/06/17 00:07:39;;;;;;;0.10;0.10;;;;;;;;;;5135520;27;20543;-51
2023/06/17 00:10:06;;;;;;;0.10;0.10;;;;;;;;;;5137307;27;20268;-50
2023/06/17 00:12:33;;;;;;;0.10;0.10;;;;;;;;;;5137726;27;20046;-47
2023/06/17 00:15:01;;;;;;;0.17;0.17;;;;;;;;;;5107723;27;20051;-49
2023/06/17 00:17:30;;;;;;;0.20;0.20;;;;;;;;;;5140078;27;20552;-48
2023/06/17 00:19:58;;;;;;;0.10;0.10;;;;;;;;;;5149741;27;20055;-47
2023/06/17 00:22:25;;;;;;;0.10;0.10;;;;;;;;;;5116584;28;20954;-48
2023/06/17 00:24:50;;;;;;;0.10;0.10;;;;;;;;;;5116556;28;20043;-49
2023/06/17 00:27:16;;;;;;;0.10;0.10;;;;;;;;;;5126449;27;20470;-47
2023/06/17 00:29:41;;;;;;;0.10;0.10;;;;;;;;;;5136169;27;20399;-47
2023/06/17 00:32:07;;;;;;;0.10;0.10;;;;;;;;;;5137446;27;20047;-45
2023/06/17 00:34:32;;;;;;;0.15;0.15;;;;;;;;;;5136593;27;20043;-46
2023/06/17 00:36:58;;;;;;;0.47;0.35;;;;;;;;;;5136917;27;20457;-46
2023/06/17 00:39:23;;;;;;;0.10;0.10;;;;;;;;;;5118155;27;20410;-48
2023/06/17 00:41:49;;;;;;;0.10;0.10;;;;;;;;;;5136471;27;20049;-46
2023/06/17 00:44:15;;;;;;;0.10;0.10;;;;;;;;;;5136374;27;20122;-47
2023/06/17 00:46:41;;;;;;;0.10;0.10;;;;;;;;;;5136209;27;20338;-48
2023/06/17 00:49:07;;;;;;;0.10;0.10;;;;;;;;;;5136411;27;20058;-47
2023/06/17 00:51:33;;;;;;;0.10;0.10;;;;;;;;;;5118775;27;20047;-49
2023/06/17 00:53:59;;;;;;;0.10;0.10;;;;;;;;;;5115940;28;20062;-47
2023/06/17 00:56:26;;;;;;;0.10;0.10;;;;;;;;;;5099647;27;20129;-50
2023/06/17 00:58:53;;;;;;;0.10;0.10;;;;;;;;;;5136742;27;20361;-50
2023/06/17 01:01:19;;;;;;;0.10;0.10;;;;;;;;;;5120744;27;20059;-46
2023/06/17 01:03:45;;;;;;;0.10;0.10;;;;;;;;;;5115859;28;20464;-47
2023/06/17 01:06:13;;;;;;;0.10;0.10;;;;;;;;;;5116080;28;20984;-50
2023/06/17 01:08:44;;;;;;;0.20;0.20;;;;;;;;;;5116703;27;20559;-46
2023/06/17 01:11:12;;;;;;;0.10;0.10;;;;;;;;;;5136303;27;20475;-48
2023/06/17 01:13:37;;;;;;;;;;;;;;;;;;5117924;27;20085;-50
2023/06/17 01:16:04;;;;;;;0.10;0.10;;;;;;;;;;5116504;27;19969;-49
2023/06/17 01:18:31;;;;;;;0.10;0.10;;;;;;;;;;5117374;27;20475;-50
2023/06/17 01:20:56;;;;;;;0.10;0.10;;;;;;;;;;5136099;27;20051;-47
2023/06/17 01:23:26;;;;;;;0.10;0.10;;;;;;;;;;5135709;27;20034;-50
2023/06/17 01:25:52;;;;;;;0.10;0.10;;;;;;;;;;5117536;27;20058;-51
2023/06/17 01:28:19;;;;;;;0.10;0.10;;;;;;;;;;5135507;27;20134;-47
2023/06/17 01:30:47;;;;;;;0.10;0.10;;;;;;;;;;5136157;27;20047;-48
2023/06/17 01:33:13;;;;;;;0.10;0.10;;;;;;;;;;5133723;27;20076;-46
2023/06/17 01:35:40;;;;;;;0.10;0.10;;;;;;;;;;5134742;27;20051;-49
2023/06/17 01:38:14;;;;;;;0.10;0.10;;;;;;;;;;5135170;27;20442;-47
2023/06/17 01:40:40;;;;;;;0.10;0.10;;;;;;;;;;5125481;27;20047;-48
2023/06/17 01:43:06;;;;;;;0.10;0.10;;;;;;;;;;5139107;27;20478;-47
2023/06/17 01:45:32;;;;;;;0.10;0.10;;;;;;;;;;5155854;27;20049;-47
2023/06/17 01:47:57;;;;;;;0.10;0.10;;;;;;;;;;5142289;27;20097;-49
2023/06/17 01:50:23;;;;;;;0.10;0.10;;;;;;;;;;5133983;27;20484;-47
2023/06/17 01:52:49;;;;;;;0.10;0.10;;;;;;;;;;5135663;27;20083;-51
2023/06/17 01:55:16;;;;;;;0.10;0.10;;;;;;;;;;5135121;27;20459;-48
2023/06/17 01:57:42;;;;;;;0.20;0.20;;;;;;;;;;5127406;27;20043;-47
2023/06/17 02:00:08;;;;;;;0.20;0.20;;;;;;;;;;5120116;27;20146;-47
2023/06/17 02:02:35;;;;;;;0.10;0.10;;;;;;;;;;5135743;27;20137;-49
2023/06/17 02:05:02;;;;;;;0.13;0.13;;;;;;;;;;5135525;27;20633;-47
2023/06/17 02:07:28;;;;;;;0.20;0.20;;;;;;;;;;5134900;27;20325;-47
2023/06/17 02:09:53;;;;;;;0.20;0.20;;;;;;;;;;5134397;27;20488;-50
2023/06/17 02:12:19;;;;;;;0.10;0.10;;;;;;;;;;5134862;27;20224;-48
2023/06/17 02:14:45;;;;;;;0.10;0.10;;;;;;;;;;5133889;27;20656;-51
2023/06/17 02:17:11;;;;;;;0.10;0.10;;;;;;;;;;5135036;27;20054;-48
2023/06/17 02:19:37;;;;;;;0.10;0.10;;;;;;;;;;5134795;27;20043;-49
2023/06/17 02:22:04;;;;;;;0.10;0.10;;;;;;;;;;5135156;27;20076;-50
2023/06/17 02:24:30;;;;;;;0.10;0.10;;;;;;;;;;5135146;27;20346;-48
2023/06/17 02:26:56;;;;;;;0.10;0.10;;;;;;;;;;5134406;27;20456;-48
2023/06/17 02:29:21;;;;;;;0.10;0.10;;;;;;;;;;5134255;27;20074;-48
2023/06/17 02:31:47;;;;;;;0.10;0.10;;;;;;;;;;5134986;27;20487;-51
2023/06/17 02:34:13;;;;;;;0.10;0.10;;;;;;;;;;5116958;27;20296;-48
2023/06/17 02:36:39;;;;;;;0.10;0.10;;;;;;;;;;5134525;27;20047;-47
2023/06/17 02:39:05;;;;;;;0.10;0.10;;;;;;;;;;5134499;27;20119;-47
2023/06/17 02:41:30;;;;;;;0.10;0.10;;;;;;;;;;5134966;27;20042;-48
2023/06/17 02:43:56;;;;;;;0.10;0.10;;;;;;;;;;5154026;27;20085;-48
2023/06/17 02:46:22;;;;;;;0.10;0.10;;;;;;;;;;5155366;27;20047;-48
2023/06/17 02:48:48;;;;;;;0.20;0.20;;;;;;;;;;5136404;27;20047;-48
2023/06/17 02:51:14;;;;;;;0.10;0.10;;;;;;;;;;5119797;27;20106;-48
2023/06/17 02:53:40;;;;;;;0.10;0.10;;;;;;;;;;5132931;27;20042;-46
2023/06/17 02:56:05;;;;;;;0.10;0.10;;;;;;;;;;5134280;27;20099;-47
2023/06/17 02:58:31;;;;;;;0.10;0.10;;;;;;;;;;5134787;27;20448;-49
2023/06/17 03:00:57;;;;;;;0.10;0.10;;;;;;;;;;5134620;27;20062;-48
2023/06/17 03:03:33;;;;;;;0.10;0.10;;;;;;;;;;5135000;27;20046;-47
2023/06/17 03:06:01;;;;;;;0.10;0.10;;;;;;;;;;5117899;27;20058;-46
2023/06/17 03:08:29;;;;;;;0.10;0.10;;;;;;;;;;5133835;27;20070;-48
2023/06/17 03:10:55;;;;;;;0.10;0.10;;;;;;;;;;5134560;27;20042;-48
2023/06/17 03:13:20;;;;;;;0.10;0.10;;;;;;;;;;5129628;27;20047;-49
2023/06/17 03:15:47;;;;;;;0.28;0.25;;;;;;;;;;5113337;28;20051;-50
2023/06/17 03:18:13;;;;;;;0.10;0.10;;;;;;;;;;5125583;27;20074;-49
2023/06/17 03:20:40;;;;;;;0.10;0.10;;;;;;;;;;5124142;27;20465;-50
2023/06/17 03:23:06;;;;;;;0.20;0.20;;;;;;;;;;5113685;28;20050;-46
2023/06/17 03:25:31;;;;;;;0.10;0.10;;;;;;;;;;5114042;28;20043;-48
2023/06/17 03:28:00;;;;;;;0.10;0.10;;;;;;;;;;5123560;27;20046;-47
2023/06/17 03:30:26;;;;;;;0.10;0.10;;;;;;;;;;5126070;27;20197;-46
2023/06/17 03:32:57;;;;;;;0.10;0.10;;;;;;;;;;5114014;28;20051;-49
2023/06/17 03:35:23;;;;;;;0.10;0.10;;;;;;;;;;5124791;27;20047;-46
2023/06/17 03:37:49;;;;;;;0.10;0.10;;;;;;;;;;5133358;27;20053;-48
2023/06/17 03:40:14;;;;;;;0.10;0.10;;;;;;;;;;5115090;27;20050;-47
2023/06/17 03:42:40;;;;;;;0.10;0.10;;;;;;;;;;5117663;27;20082;-47
2023/06/17 03:45:05;;;;;;;0.10;0.10;;;;;;;;;;5137700;27;20103;-48
2023/06/17 03:47:31;;;;;;;0.10;0.10;;;;;;;;;;5137061;27;20038;-51
2023/06/17 03:49:57;;;;;;;0.30;0.30;;;;;;;;;;5137137;27;20438;-48
2023/06/17 03:52:22;;;;;;;0.10;0.10;;;;;;;;;;5137419;27;20042;-47
2023/06/17 03:54:48;;;;;;;0.47;0.28;;;;;;;;;;5136648;27;20051;-46
2023/06/17 03:57:14;;;;;;;0.10;0.10;;;;;;;;;;5137181;27;20690;-48
2023/06/17 03:59:39;;;;;;;0.10;0.10;;;;;;;;;;5137252;27;20414;-48
2023/06/17 04:02:05;;;;;;;0.10;0.10;;;;;;;;;;5137622;27;20050;-46
2023/06/17 04:04:32;;;;;;;0.10;0.10;;;;;;;;;;5137524;27;20429;-48
2023/06/17 04:06:58;;;;;;;0.20;0.20;;;;;;;;;;5137558;27;20051;-46
2023/06/17 04:09:23;;;;;;;0.10;0.10;;;;;;;;;;5136981;27;20050;-47
2023/06/17 04:11:49;;;;;;;0.10;0.10;;;;;;;;;;5136638;27;20096;-48
2023/06/17 04:14:14;;;;;;;0.10;0.10;;;;;;;;;;5149787;27;20074;-47
2023/06/17 04:16:41;;;;;;;0.10;0.10;;;;;;;;;;5158368;27;20090;-46
2023/06/17 04:19:09;;;;;;;0.10;0.10;;;;;;;;;;5131785;27;20270;-48
2023/06/17 04:21:35;;;;;;;0.10;0.10;;;;;;;;;;5115671;27;20074;-49
2023/06/17 04:24:00;;;;;;;0.10;0.10;;;;;;;;;;5136648;27;20438;-50
2023/06/17 04:26:27;;;;;;;0.20;0.20;;;;;;;;;;5136941;27;20427;-48
2023/06/17 04:28:53;;;;;;;0.10;0.10;;;;;;;;;;5136928;27;20419;-48
2023/06/17 04:31:19;;;;;;;0.10;0.10;;;;;;;;;;5136810;27;20446;-48
2023/06/17 04:33:44;;;;;;;0.10;0.10;;;;;;;;;;5137129;27;20129;-48
2023/06/17 04:36:10;;;;;;;0.10;0.10;;;;;;;;;;5137143;27;20639;-49
2023/06/17 04:38:38;;;;;;;0.10;0.10;;;;;;;;;;5135811;27;20426;-52
2023/06/17 04:41:05;;;;;;;0.10;0.10;;;;;;;;;;5118123;27;20043;-48
2023/06/17 04:43:33;;;;;;;0.10;0.10;;;;;;;;;;5118019;27;20169;-46
2023/06/17 04:45:59;;;;;;;0.10;0.10;;;;;;;;;;5136553;27;20049;-46
2023/06/17 04:48:25;;;;;;;0.10;0.10;;;;;;;;;;5117769;27;20275;-47
2023/06/17 04:50:52;;;;;;;0.10;0.10;;;;;;;;;;5136473;27;20047;-48
2023/06/17 04:53:18;;;;;;;0.10;0.10;;;;;;;;;;5136311;27;20055;-48
2023/06/17 04:55:43;;;;;;;0.10;0.10;;;;;;;;;;5135875;27;20228;-49
2023/06/17 04:58:09;;;;;;;0.10;0.10;;;;;;;;;;5136441;27;20054;-46
2023/06/17 05:00:34;;;;;;;0.10;0.10;;;;;;;;;;5136470;27;20111;-48
2023/06/17 05:03:00;;;;;;;0.10;0.10;;;;;;;;;;5136617;27;20496;-48
2023/06/17 05:05:25;;;;;;;0.10;0.10;;;;;;;;;;5136525;27;20061;-47
2023/06/17 05:07:51;;;;;;;0.10;0.10;;;;;;;;;;5136241;27;20312;-47
2023/06/17 05:10:16;;;;;;;0.10;0.10;;;;;;;;;;5136863;27;20549;-47
2023/06/17 05:12:42;;;;;;;0.25;0.25;;;;;;;;;;5127979;27;20178;-47
2023/06/17 05:15:08;;;;;;;0.10;0.10;;;;;;;;;;5156517;27;20398;-48
2023/06/17 05:17:33;;;;;;;0.10;0.10;;;;;;;;;;5134609;27;20566;-47
2023/06/17 05:19:59;;;;;;;0.10;0.10;;;;;;;;;;5131582;27;20071;-48
2023/06/17 05:22:24;;;;;;;0.10;0.10;;;;;;;;;;5115230;28;20047;-47
2023/06/17 05:24:50;;;;;;;0.10;0.10;;;;;;;;;;5115147;28;20081;-47
2023/06/17 05:27:16;;;;;;;0.30;0.30;;;;;;;;;;5114713;27;20076;-49
2023/06/17 05:29:42;;;;;;;0.20;0.20;;;;;;;;;;5133662;27;20763;-46
2023/06/17 05:32:07;;;;;;;0.10;0.10;;;;;;;;;;5115237;28;20043;-46
2023/06/17 05:34:33;;;;;;;0.10;0.10;;;;;;;;;;5114933;28;20074;-48
2023/06/17 05:36:59;;;;;;;0.10;0.10;;;;;;;;;;5115485;28;20134;-48
2023/06/17 05:39:24;;;;;;;0.10;0.10;;;;;;;;;;5132040;27;20050;-46
2023/06/17 05:41:50;;;;;;;0.10;0.10;;;;;;;;;;5135524;27;20050;-48
2023/06/17 05:44:15;;;;;;;0.10;0.10;;;;;;;;;;5135499;27;20047;-49
2023/06/17 05:46:41;;;;;;;0.17;0.17;;;;;;;;;;5135323;27;20063;-47
2023/06/17 05:49:07;;;;;;;0.10;0.10;;;;;;;;;;5135189;27;20534;-47
2023/06/17 05:51:32;;;;;;;0.10;0.10;;;;;;;;;;5117938;27;20050;-47
2023/06/17 05:53:58;;;;;;;0.10;0.10;;;;;;;;;;5114484;28;20054;-47
2023/06/17 05:56:23;;;;;;;0.10;0.10;;;;;;;;;;5096311;28;20039;-46
2023/06/17 05:58:49;;;;;;;0.10;0.10;;;;;;;;;;5131380;27;20055;-50
2023/06/17 06:01:15;;;;;;;0.10;0.10;;;;;;;;;;5120052;27;20074;-47
2023/06/17 06:03:41;;;;;;;0.10;0.10;;;;;;;;;;5114634;28;20050;-49
2023/06/17 06:06:07;;;;;;;0.10;0.10;;;;;;;;;;5113831;27;20051;-47
2023/06/17 06:08:32;;;;;;;0.20;0.20;;;;;;;;;;5123893;27;20043;-47
2023/06/17 06:10:59;;;;;;;0.13;0.13;;;;;;;;;;5122357;27;20398;-47
2023/06/17 06:13:24;;;;;;;0.10;0.10;;;;;;;;;;5134274;27;20562;-48
2023/06/17 06:15:50;;;;;;;0.20;0.13;;;;;;;;;;5156336;27;20038;-48
2023/06/17 06:18:15;;;;;;;0.17;0.17;;;;;;;;;;5148807;27;20423;-48
2023/06/17 06:20:41;;;;;;;0.47;0.32;;;;;;;;;;5124921;27;20354;-49
2023/06/17 06:23:07;;;;;;;0.10;0.10;;;;;;;;;;5114794;28;20120;-47
2023/06/17 06:25:32;;;;;;;0.10;0.10;;;;;;;;;;5114644;28;20047;-47
2023/06/17 06:27:58;;;;;;;0.10;0.10;;;;;;;;;;5117930;27;20043;-47
2023/06/17 06:30:24;;;;;;;0.30;0.30;;;;;;;;;;5127114;27;20095;-48
2023/06/17 06:32:50;;;;;;;0.10;0.10;;;;;;;;;;5114925;28;20051;-48
2023/06/17 06:35:16;;;;;;;0.10;0.10;;;;;;;;;;5113784;28;20480;-47
2023/06/17 06:37:41;;;;;;;0.10;0.10;;;;;;;;;;5115504;27;20071;-46
2023/06/17 06:40:07;;;;;;;0.10;0.10;;;;;;;;;;5132633;27;20050;-47
2023/06/17 06:42:33;;;;;;;0.10;0.10;;;;;;;;;;5133990;27;20054;-48
2023/06/17 06:44:58;;;;;;;0.52;0.52;;;;;;;;;;5134592;27;20483;-48
2023/06/17 06:47:24;;;;;;;0.10;0.10;;;;;;;;;;5134692;27;20089;-50
2023/06/17 06:49:49;;;;;;;0.10;0.10;;;;;;;;;;5131344;27;20054;-48
2023/06/17 06:52:15;;;;;;;0.10;0.10;;;;;;;;;;5114485;28;20495;-50
2023/06/17 06:54:40;;;;;;;0.10;0.10;;;;;;;;;;5114458;28;20058;-48
2023/06/17 06:57:06;;;;;;;0.10;0.10;;;;;;;;;;5114099;28;20444;-48
2023/06/17 06:59:31;;;;;;;0.10;0.10;;;;;;;;;;5129600;27;20469;-49
2023/06/17 07:01:57;;;;;;;0.70;0.17;;;;;;;;;;5133592;27;20086;-49
2023/06/17 07:04:22;;;;;;;0.10;0.10;;;;;;;;;;5135230;27;20047;-49
2023/06/17 07:06:48;;;;;;;0.10;0.10;;;;;;;;;;5134809;27;20070;-48
2023/06/17 07:09:14;;;;;;;0.10;0.10;;;;;;;;;;5133388;27;20458;-48
2023/06/17 07:11:39;;;;;;;0.10;0.10;;;;;;;;;;5127207;27;20047;-48
2023/06/17 07:14:05;;;;;;;0.10;0.10;;;;;;;;;;5154941;27;20042;-48
2023/06/17 07:16:30;;;;;;;0.10;0.10;;;;;;;;;;5157374;27;20042;-50
2023/06/17 07:18:56;;;;;;;0.10;0.10;;;;;;;;;;5147322;27;20050;-46
2023/06/17 07:21:21;;;;;;;0.10;0.10;;;;;;;;;;5121895;27;20047;-46
2023/06/17 07:23:47;;;;;;;0.10;0.10;;;;;;;;;;5117724;28;20058;-47
2023/06/17 07:26:12;;;;;;;0.10;0.10;;;;;;;;;;5117675;28;20051;-50
2023/06/17 07:28:38;;;;;;;0.10;0.10;;;;;;;;;;5124853;27;20447;-49
2023/06/17 07:31:03;;;;;;;0.10;0.10;;;;;;;;;;5123474;27;20050;-47
2023/06/17 07:33:30;;;;;;;0.25;0.20;;;;;;;;;;5117152;28;20051;-47
2023/06/17 07:35:55;;;;;;;0.10;0.10;;;;;;;;;;5117827;28;20553;-48
2023/06/17 07:38:22;;;;;;;0.10;0.10;;;;;;;;;;5121270;27;20046;-48
2023/06/17 07:40:48;;;;;;;0.10;0.10;;;;;;;;;;5126033;27;20318;-47
2023/06/17 07:43:13;;;;;;;0.20;0.20;;;;;;;;;;5136573;27;20043;-48
2023/06/17 07:45:38;;;;;;;0.10;0.10;;;;;;;;;;5137924;27;20046;-48
2023/06/17 07:48:04;;;;;;;0.10;0.10;;;;;;;;;;5137402;27;20051;-50
2023/06/17 07:50:30;;;;;;;0.10;0.10;;;;;;;;;;5110049;28;20508;-48
2023/06/17 07:52:57;;;;;;;0.10;0.10;;;;;;;;;;5117047;28;20304;-48
2023/06/17 07:55:22;;;;;;;0.10;0.10;;;;;;;;;;5117187;28;20565;-51
2023/06/17 07:57:48;;;;;;;0.10;0.10;;;;;;;;;;5116557;27;20074;-48
2023/06/17 08:00:14;;;;;;;0.10;0.10;;;;;;;;;;5130575;27;20047;-47
2023/06/17 08:02:40;;;;;;;0.10;0.10;;;;;;;;;;5136109;27;20378;-47
2023/06/17 08:05:06;;;;;;;0.10;0.10;;;;;;;;;;5138630;27;20094;-47
2023/06/17 08:07:32;;;;;;;0.10;0.10;;;;;;;;;;5136369;27;20046;-50
2023/06/17 08:09:57;;;;;;;0.10;0.10;;;;;;;;;;5136529;27;20053;-49
2023/06/17 08:12:23;;;;;;;0.10;0.10;;;;;;;;;;5143272;27;20038;-50
2023/06/17 08:14:49;;;;;;;0.10;0.10;;;;;;;;;;5157757;27;20587;-49
2023/06/17 08:17:14;;;;;;;0.13;0.13;;;;;;;;;;5158695;27;20047;-48
2023/06/17 08:19:40;;;;;;;0.10;0.10;;;;;;;;;;5141231;27;20058;-48
2023/06/17 08:22:06;;;;;;;0.10;0.10;;;;;;;;;;5117033;28;20063;-49
2023/06/17 08:24:32;;;;;;;0.10;0.10;;;;;;;;;;5117183;28;20478;-51
2023/06/17 08:26:58;;;;;;;0.10;0.10;;;;;;;;;;5117183;27;20490;-48
2023/06/17 08:29:23;;;;;;;0.10;0.10;;;;;;;;;;5128706;27;20050;-47
2023/06/17 08:31:50;;;;;;;0.10;0.10;;;;;;;;;;5117558;27;20051;-48
2023/06/17 08:34:16;;;;;;;0.10;0.10;;;;;;;;;;5116462;28;20043;-48
2023/06/17 08:36:42;;;;;;;0.10;0.10;;;;;;;;;;5116951;28;20058;-48
2023/06/17 08:39:08;;;;;;;0.10;0.10;;;;;;;;;;5107476;27;20403;-48
2023/06/17 08:41:39;;;;;;;0.10;0.10;;;;;;;;;;5118843;27;20051;-49
2023/06/17 08:44:05;;;;;;;0.10;0.10;;;;;;;;;;5110340;27;20070;-47
2023/06/17 08:46:31;;;;;;;0.10;0.10;;;;;;;;;;5118364;27;20389;-51
2023/06/17 08:48:57;;;;;;;0.10;0.10;;;;;;;;;;5137119;27;20548;-49
2023/06/17 08:51:22;;;;;;;0.10;0.10;;;;;;;;;;5117883;27;20039;-47
2023/06/17 08:53:49;;;;;;;0.10;0.10;;;;;;;;;;5136604;27;20074;-49
2023/06/17 08:56:14;;;;;;;0.10;0.10;;;;;;;;;;5136998;27;20059;-48
2023/06/17 08:58:40;;;;;;;0.10;0.10;;;;;;;;;;5136847;27;20054;-49
2023/06/17 09:01:09;;;;;;;0.10;0.10;;;;;;;;;;5136327;27;20058;-47
2023/06/17 09:03:36;;;;;;;0.10;0.10;;;;;;;;;;5136333;27;20049;-50
2023/06/17 09:06:02;;;;;;;0.10;0.10;;;;;;;;;;5135932;27;20054;-51
2023/06/17 09:08:29;;;;;;;0.10;0.10;;;;;;;;;;5136384;27;20058;-49
2023/06/17 09:11:03;;;;;;;0.10;0.10;;;;;;;;;;5135248;27;20053;-51
2023/06/17 09:13:28;;;;;;;0.10;0.10;;;;;;;;;;5117662;27;20128;-47
2023/06/17 09:15:54;;;;;;;0.10;0.10;;;;;;;;;;5135968;27;20050;-48
2023/06/17 09:18:20;;;;;;;0.10;0.10;;;;;;;;;;5135264;27;20047;-48
2023/06/17 09:20:51;;;;;;;0.10;0.10;;;;;;;;;;5135951;27;20421;-47
2023/06/17 09:23:17;;;;;;;0.43;0.25;;;;;;;;;;5135537;27;20050;-48
2023/06/17 09:25:43;;;;;;;0.10;0.10;;;;;;;;;;5136153;27;20039;-50
2023/06/17 09:28:09;;;;;;;0.10;0.10;;;;;;;;;;5136644;27;20778;-50
2023/06/17 09:30:41;;;;;;;0.10;0.10;;;;;;;;;;5106924;27;20057;-47
2023/06/17 09:33:23;;;;;;;0.10;0.10;;;;;;;;;;5136350;27;20320;-47
2023/06/17 09:36:04;;;;;;;0.10;0.10;;;;;;;;;;5136393;27;20046;-48
2023/06/17 09:38:30;;;;;;;0.10;0.10;;;;;;;;;;5135543;27;20469;-47
2023/06/17 09:40:57;;;;;;;0.10;0.10;;;;;;;;;;5117020;27;20054;-47
2023/06/17 09:43:25;;;;;;;0.10;0.10;;;;;;;;;;5136259;27;20046;-47
2023/06/17 09:45:55;;;;;;;0.10;0.10;;;;;;;;;;5136073;27;20132;-47
2023/06/17 09:48:24;;;;;;;0.10;0.10;;;;;;;;;;5134684;27;20076;-47
2023/06/17 09:50:55;;;;;;;0.10;0.10;;;;;;;;;;5124397;27;20108;-48
2023/06/17 09:53:23;;;;;;;0.10;0.10;;;;;;;;;;5115611;28;20074;-50
2023/06/17 09:55:55;;;;;;;0.10;0.10;;;;;;;;;;5116086;28;20051;-47
2023/06/17 09:58:22;;;;;;;0.10;0.10;;;;;;;;;;5115676;27;20299;-48
2023/06/17 10:00:51;;;;;;;0.10;0.10;;;;;;;;;;5125295;27;20043;-48
2023/06/17 10:03:17;;;;;;;0.10;0.10;;;;;;;;;;5115897;28;20043;-46
2023/06/17 10:05:44;;;;;;;0.10;0.10;;;;;;;;;;5114615;27;20043;-49
2023/06/17 10:08:10;;;;;;;0.10;0.10;;;;;;;;;;5135506;27;20397;-48
2023/06/17 10:10:36;;;;;;;0.10;0.10;;;;;;;;;;5128951;27;20045;-48
2023/06/17 10:13:04;;;;;;;0.10;0.10;;;;;;;;;;5135529;27;20054;-47
2023/06/17 10:15:30;;;;;;;0.10;0.10;;;;;;;;;;5135507;27;20419;-50
2023/06/17 10:17:56;;;;;;;0.10;0.10;;;;;;;;;;5135873;27;20497;-48
2023/06/17 10:20:23;;;;;;;0.10;0.10;;;;;;;;;;5116841;27;20046;-46
2023/06/17 10:22:54;;;;;;;0.10;0.10;;;;;;;;;;5117222;27;20541;-50
2023/06/17 10:25:20;;;;;;;0.20;0.20;;;;;;;;;;5135892;27;20183;-49
2023/06/17 10:27:45;;;;;;;0.47;0.47;;;;;;;;;;5135236;27;20176;-50
2023/06/17 10:30:27;;;;;;;0.20;0.20;;;;;;;;;;5135322;27;20247;-48
2023/06/17 10:33:01;;;;;;;0.10;0.10;;;;;;;;;;5135723;27;20042;-46
2023/06/17 10:35:44;;;;;;;0.10;0.10;;;;;;;;;;5117229;27;20842;-48
2023/06/17 10:38:26;;;;;;;0.10;0.10;;;;;;;;;;5135077;27;20057;-47
2023/06/17 10:40:51;;;;;;;0.10;0.10;;;;;;;;;;5125991;27;20038;-48
2023/06/17 10:43:18;;;;;;;0.10;0.10;;;;;;;;;;5135660;27;20046;-48
2023/06/17 10:45:58;;;;;;;0.10;0.10;;;;;;;;;;5134580;27;20043;-49
2023/06/17 10:48:28;;;;;;;0.10;0.10;;;;;;;;;;5134249;27;20050;-49
2023/06/17 10:50:55;;;;;;;0.20;0.20;;;;;;;;;;5107732;27;20086;-48
2023/06/17 10:53:24;;;;;;;0.10;0.10;;;;;;;;;;5135845;27;20446;-47
2023/06/17 10:55:49;;;;;;;0.10;0.10;;;;;;;;;;5135146;27;20322;-50
2023/06/17 10:58:15;;;;;;;0.20;0.20;;;;;;;;;;5135333;27;20039;-48
2023/06/17 11:00:40;;;;;;;0.10;0.10;;;;;;;;;;5134811;27;20087;-48
2023/06/17 11:03:08;;;;;;;0.10;0.10;;;;;;;;;;5115061;28;20138;-47
2023/06/17 11:05:35;;;;;;;0.10;0.10;;;;;;;;;;5115074;28;20107;-47
2023/06/17 11:08:02;;;;;;;0.10;0.10;;;;;;;;;;5113809;28;20039;-47
2023/06/17 11:10:27;;;;;;;0.20;0.20;;;;;;;;;;5114254;27;20942;-48
2023/06/17 11:12:53;;;;;;;0.10;0.10;;;;;;;;;;5114790;28;20149;-47
2023/06/17 11:15:20;;;;;;;0.10;0.10;;;;;;;;;;5114168;28;20051;-46
2023/06/17 11:17:45;;;;;;;0.10;0.10;;;;;;;;;;5114543;28;20149;-48
2023/06/17 11:20:11;;;;;;;0.10;0.10;;;;;;;;;;5113819;28;20090;-46
2023/06/17 11:22:38;;;;;;;0.10;0.10;;;;;;;;;;5114499;28;20400;-47
2023/06/17 11:25:03;;;;;;;0.10;0.10;;;;;;;;;;5096111;28;20412;-50
2023/06/17 11:27:29;;;;;;;0.20;0.13;;;;;;;;;;5114093;28;20058;-48
2023/06/17 11:29:55;;;;;;;0.10;0.10;;;;;;;;;;5113218;28;20070;-49
2023/06/17 11:32:20;;;;;;;0.10;0.10;;;;;;;;;;5114296;28;20043;-46
2023/06/17 11:34:46;;;;;;;0.10;0.10;;;;;;;;;;5114480;28;20339;-47
2023/06/17 11:37:12;;;;;;;0.10;0.10;;;;;;;;;;5113989;28;20047;-51
2023/06/17 11:39:38;;;;;;;0.10;0.10;;;;;;;;;;5113074;28;20208;-49
2023/06/17 11:42:05;;;;;;;0.10;0.10;;;;;;;;;;5114484;28;20069;-47
2023/06/17 11:44:31;;;;;;;0.30;0.30;;;;;;;;;;5096042;28;20487;-50
2023/06/17 11:47:02;;;;;;;0.10;0.10;;;;;;;;;;5095604;28;20492;-48
2023/06/17 11:49:27;;;;;;;0.10;0.10;;;;;;;;;;5113597;28;20039;-49
2023/06/17 11:51:53;;;;;;;0.10;0.10;;;;;;;;;;5113646;28;20490;-48
2023/06/17 11:54:20;;;;;;;0.10;0.10;;;;;;;;;;5113829;28;20151;-48
2023/06/17 11:56:48;;;;;;;0.10;0.10;;;;;;;;;;5113998;28;20039;-47
2023/06/17 11:59:13;;;;;;;0.20;0.20;;;;;;;;;;5113809;28;20160;-47
2023/06/17 12:01:39;;;;;;;0.10;0.10;;;;;;;;;;5113419;27;20131;-51
2023/06/17 12:04:04;;;;;;;0.17;0.17;;;;;;;;;;5116564;28;20547;-47
2023/06/17 12:06:31;;;;;;;0.10;0.10;;;;;;;;;;5116688;28;20047;-47
2023/06/17 12:08:58;;;;;;;0.10;0.10;;;;;;;;;;5117362;27;20050;-47
2023/06/17 12:11:25;;;;;;;0.10;0.10;;;;;;;;;;5100668;28;20100;-47
2023/06/17 12:13:51;;;;;;;0.10;0.10;;;;;;;;;;5112205;28;20444;-47
2023/06/17 12:16:30;;;;;;;0.10;0.10;;;;;;;;;;5099019;28;20275;-47
2023/06/17 12:18:56;;;;;;;0.10;0.10;;;;;;;;;;5116855;28;20074;-50
2023/06/17 12:21:21;;;;;;;0.10;0.10;;;;;;;;;;5116666;28;20427;-47
2023/06/17 12:23:50;;;;;;;0.10;0.10;;;;;;;;;;5116614;28;20081;-51
2023/06/17 12:26:17;;;;;;;0.20;0.20;;;;;;;;;;5099513;28;20043;-46
2023/06/17 12:28:43;;;;;;;0.10;0.10;;;;;;;;;;5116780;28;20043;-50
2023/06/17 12:31:09;;;;;;;0.10;0.10;;;;;;;;;;5115332;28;20521;-47
2023/06/17 12:33:34;;;;;;;0.10;0.10;;;;;;;;;;5116581;28;20051;-48
2023/06/17 12:36:00;;;;;;;0.10;0.10;;;;;;;;;;5116786;28;20413;-50
2023/06/17 12:38:28;;;;;;;0.20;0.20;;;;;;;;;;5115607;28;20331;-47
2023/06/17 12:40:54;;;;;;;0.10;0.10;;;;;;;;;;5097917;28;20427;-47
2023/06/17 12:43:20;;;;;;;0.10;0.10;;;;;;;;;;5115877;28;20511;-48
2023/06/17 12:45:45;;;;;;;0.10;0.10;;;;;;;;;;5116131;28;20047;-50
2023/06/17 12:48:11;;;;;;;0.10;0.10;;;;;;;;;;5116531;28;20062;-50
2023/06/17 12:50:37;;;;;;;0.10;0.10;;;;;;;;;;5114874;28;20487;-48
2023/06/17 12:53:03;;;;;;;0.10;0.10;;;;;;;;;;5114033;28;20088;-49
2023/06/17 12:55:28;;;;;;;0.13;0.13;;;;;;;;;;5116477;28;20051;-50
2023/06/17 12:57:54;;;;;;;0.10;0.10;;;;;;;;;;5116571;28;20248;-51
2023/06/17 13:00:19;;;;;;;0.10;0.10;;;;;;;;;;5115415;28;20052;-48
2023/06/17 13:02:45;;;;;;;0.10;0.10;;;;;;;;;;5116231;28;20465;-48
2023/06/17 13:05:11;;;;;;;0.10;0.10;;;;;;;;;;5115983;28;20043;-50
2023/06/17 13:07:36;;;;;;;0.10;0.10;;;;;;;;;;5115205;28;20547;-48
2023/06/17 13:10:02;;;;;;;0.10;0.10;;;;;;;;;;5102996;27;20047;-48
2023/06/17 13:12:28;;;;;;;0.10;0.10;;;;;;;;;;5115968;28;20362;-50
2023/06/17 13:14:54;;;;;;;0.10;0.10;;;;;;;;;;5115452;27;20050;-49
2023/06/17 13:17:19;;;;;;;0.10;0.10;;;;;;;;;;5115223;28;20055;-50
2023/06/17 13:19:46;;;;;;;0.25;0.13;;;;;;;;;;5115042;28;20047;-48
2023/06/17 13:22:12;;;;;;;0.10;0.10;;;;;;;;;;5116213;28;20399;-48
2023/06/17 13:24:37;;;;;;;0.10;0.10;;;;;;;;;;5115847;28;20754;-48
2023/06/17 13:27:03;;;;;;;0.10;0.10;;;;;;;;;;5115424;28;20082;-47
2023/06/17 13:29:29;;;;;;;0.10;0.10;;;;;;;;;;5115351;27;20140;-47
2023/06/17 13:31:55;;;;;;;0.10;0.10;;;;;;;;;;5114727;28;20347;-48
2023/06/17 13:34:21;;;;;;;0.10;0.10;;;;;;;;;;5115715;28;20047;-48
2023/06/17 13:36:46;;;;;;;0.10;0.10;;;;;;;;;;5115620;28;20046;-47
2023/06/17 13:39:13;;;;;;;0.10;0.10;;;;;;;;;;5115407;28;20047;-48
2023/06/17 13:41:38;;;;;;;0.10;0.10;;;;;;;;;;5114711;28;20047;-47
2023/06/17 13:44:05;;;;;;;0.10;0.10;;;;;;;;;;5115390;28;20078;-50
2023/06/17 13:46:31;;;;;;;0.10;0.10;;;;;;;;;;5115788;28;20050;-48
2023/06/17 13:48:57;;;;;;;0.10;0.10;;;;;;;;;;5115624;28;20414;-47
2023/06/17 13:51:23;;;;;;;0.10;0.10;;;;;;;;;;5114488;28;20074;-49
2023/06/17 13:53:48;;;;;;;0.10;0.10;;;;;;;;;;5114592;28;20545;-47
2023/06/17 13:56:14;;;;;;;0.20;0.20;;;;;;;;;;5115598;28;20521;-47
2023/06/17 13:58:39;;;;;;;0.10;0.10;;;;;;;;;;5114987;28;20458;-47
2023/06/17 14:01:05;;;;;;;0.20;0.20;;;;;;;;;;5114738;28;20151;-48
2023/06/17 14:03:31;;;;;;;0.10;0.10;;;;;;;;;;5114642;28;20056;-48
2023/06/17 14:05:58;;;;;;;0.10;0.10;;;;;;;;;;5115430;28;20099;-50
2023/06/17 14:08:23;;;;;;;0.10;0.10;;;;;;;;;;5114182;27;20047;-49
2023/06/17 14:10:50;;;;;;;0.10;0.10;;;;;;;;;;5114675;28;20089;-49
2023/06/17 14:13:15;;;;;;;0.10;0.10;;;;;;;;;;5114496;28;20054;-48
2023/06/17 14:15:41;;;;;;;0.10;0.10;;;;;;;;;;5114891;28;20194;-47
2023/06/17 14:18:06;;;;;;;0.10;0.10;;;;;;;;;;5114550;28;20051;-47
2023/06/17 14:20:33;;;;;;;0.10;0.10;;;;;;;;;;5114752;28;20277;-47
2023/06/17 14:22:59;;;;;;;0.10;0.10;;;;;;;;;;5115207;28;20493;-47
2023/06/17 14:25:25;;;;;;;0.10;0.10;;;;;;;;;;5095764;28;20051;-51
2023/06/17 14:27:52;;;;;;;0.10;0.10;;;;;;;;;;5113938;28;20096;-48
2023/06/17 14:30:18;;;;;;;0.10;0.10;;;;;;;;;;5100307;28;20043;-47
2023/06/17 14:32:44;;;;;;;0.10;0.10;;;;;;;;;;5114358;28;20533;-47
2023/06/17 14:35:11;;;;;;;0.10;0.10;;;;;;;;;;5114812;28;20039;-48
2023/06/17 14:37:37;;;;;;;0.10;0.10;;;;;;;;;;5114658;28;20039;-48